KECP

Details ICAO KECP (ECP)
Name Northwest Florida International
Region United States
Timezone America/Chicago (UTC-6.0)
Plans Departing 39
Arriving 55
Stats Elevation 69 ft / 21 m (AMSL)
Location 30.358241° -85.795603°
Runways 1
Magnetic Variation 3.737° W
Sunrise 2017-12-10 12:30:40 UTC / 2017-12-10 06:30:40 Local
Sunset 2017-12-10 22:44:26 UTC / 2017-12-10 16:44:26 Local
Advertisement - Login to hide

Runways

ID Width Length Bearing (true) Bearing (mag) Surface Threshold Offset Overrun Length
16 151 ft / 46 m 10,027 ft / 3,056 m 159.44° 163.18° Concrete 0 ft / 0 m 200 ft / 61 m
34 151 ft / 46 m 10,027 ft / 3,056 m 339.45° 343.19° Concrete 0 ft / 0 m 200 ft / 61 m

Approach Navaids

Runway Type Ident Frequency Range Bearing (true) Bearing (mag) Slope Elevation
16 Localiser IPUK 111.15 MHz 18 nm / 33 km 159.40° 163.14° - 68 ft / 21 m (AMSL)
16 Glidescope IPUK 111.15 MHz 10 nm / 19 km 159.40° 163.14° 3.00° 68 ft / 21 m (AMSL)
16 DME IPUK 111.15 MHz 18 nm / 33 km - - - 68 ft / 21 m (AMSL)

Map

Weather


0- 5 10 15 20 25 30 35+ Temperature / ° C

Clouds and Precipitation
Forecast for 2017-12-11 06:00 UTC. Updated an hour ago

Ground ~20,000 ft ~40,000 ft Winds

METAR

KECP 110153Z 00000KT 10SM CLR 02/01 A3033 RMK AO2 SLP282 T00220006

TAF

TAF KECP 102320Z 1100/1124 29003KT P6SM SKC= TAF KAUS 102320Z 1100/1206 24005KT P6SM SCT250

Frequencies

Recorded 119.75 MHz ASOS
Unicom 118.95 MHz CTAF
Tower 118.95 MHz TWR
Recorded 119.97 MHz ATIS
Ground 121.65 MHz GND
Approach 124.15 MHz TYNDALL APP/DEP
Warning: Do not use this data for real-world aviation or navigation. No guarantee of current accuracy is given.